sensor_id;sensor_type;location;lat;lon;timestamp;P1;durP1;ratioP1;P2;durP2;ratioP2
64816;SDS011;69411;45.656;11.740;2023-07-20T00:02:08;10.73;;;6.15;;
64816;SDS011;69411;45.656;11.740;2023-07-20T00:04:33;9.43;;;5.72;;
64816;SDS011;69411;45.656;11.740;2023-07-20T00:06:59;11.05;;;6.63;;
64816;SDS011;69411;45.656;11.740;2023-07-20T00:09:26;10.65;;;6.55;;
64816;SDS011;69411;45.656;11.740;2023-07-20T00:11:52;8.88;;;5.78;;
64816;SDS011;69411;45.656;11.740;2023-07-20T00:14:19;11.45;;;6.00;;
64816;SDS011;69411;45.656;11.740;2023-07-20T00:16:47;10.98;;;6.03;;
64816;SDS011;69411;45.656;11.740;2023-07-20T00:19:23;12.07;;;6.30;;
64816;SDS011;69411;45.656;11.740;2023-07-20T00:21:50;11.80;;;6.03;;
64816;SDS011;69411;45.656;11.740;2023-07-20T00:24:18;9.73;;;6.25;;
64816;SDS011;69411;45.656;11.740;2023-07-20T00:26:44;12.45;;;6.45;;
64816;SDS011;69411;45.656;11.740;2023-07-20T00:29:10;13.98;;;7.13;;
64816;SDS011;69411;45.656;11.740;2023-07-20T00:31:36;11.30;;;6.57;;
64816;SDS011;69411;45.656;11.740;2023-07-20T00:34:05;10.02;;;7.45;;
64816;SDS011;69411;45.656;11.740;2023-07-20T00:36:32;12.85;;;8.23;;
64816;SDS011;69411;45.656;11.740;2023-07-20T00:38:58;14.63;;;9.32;;
64816;SDS011;69411;45.656;11.740;2023-07-20T00:41:24;13.18;;;9.10;;
64816;SDS011;69411;45.656;11.740;2023-07-20T00:43:54;15.55;;;9.15;;
64816;SDS011;69411;45.656;11.740;2023-07-20T00:46:22;13.10;;;9.52;;
64816;SDS011;69411;45.656;11.740;2023-07-20T00:48:52;15.68;;;9.70;;
64816;SDS011;69411;45.656;11.740;2023-07-20T00:51:20;25.02;;;16.90;;
64816;SDS011;69411;45.656;11.740;2023-07-20T00:53:47;23.23;;;14.05;;
64816;SDS011;69411;45.656;11.740;2023-07-20T00:56:13;15.65;;;10.68;;
64816;SDS011;69411;45.656;11.740;2023-07-20T00:58:39;14.65;;;9.35;;
64816;SDS011;69411;45.656;11.740;2023-07-20T01:01:05;17.58;;;10.85;;
64816;SDS011;69411;45.656;11.740;2023-07-20T01:03:31;17.02;;;11.02;;
64816;SDS011;69411;45.656;11.740;2023-07-20T01:08:43;16.67;;;9.88;;
64816;SDS011;69411;45.656;11.740;2023-07-20T01:13:53;13.55;;;7.60;;
64816;SDS011;69411;45.656;11.740;2023-07-20T01:16:20;12.35;;;7.47;;
64816;SDS011;69411;45.656;11.740;2023-07-20T01:18:46;11.68;;;7.18;;
64816;SDS011;69411;45.656;11.740;2023-07-20T01:21:18;11.90;;;7.15;;
64816;SDS011;69411;45.656;11.740;2023-07-20T01:29:43;10.63;;;6.60;;
64816;SDS011;69411;45.656;11.740;2023-07-20T01:32:30;11.35;;;6.65;;
64816;SDS011;69411;45.656;11.740;2023-07-20T01:34:57;10.40;;;6.88;;
64816;SDS011;69411;45.656;11.740;2023-07-20T01:37:25;11.68;;;6.80;;
64816;SDS011;69411;45.656;11.740;2023-07-20T01:39:54;12.27;;;6.68;;
64816;SDS011;69411;45.656;11.740;2023-07-20T01:42:21;14.32;;;8.18;;
64816;SDS011;69411;45.656;11.740;2023-07-20T01:44:52;12.85;;;9.30;;
64816;SDS011;69411;45.656;11.740;2023-07-20T01:47:19;12.15;;;8.25;;
64816;SDS011;69411;45.656;11.740;2023-07-20T01:49:45;13.65;;;8.40;;
64816;SDS011;69411;45.656;11.740;2023-07-20T01:52:11;13.73;;;8.93;;
64816;SDS011;69411;45.656;11.740;2023-07-20T01:54:36;16.27;;;9.75;;
64816;SDS011;69411;45.656;11.740;2023-07-20T01:57:03;18.65;;;10.10;;
64816;SDS011;69411;45.656;11.740;2023-07-20T01:59:29;17.50;;;9.32;;
64816;SDS011;69411;45.656;11.740;2023-07-20T02:01:55;17.70;;;9.85;;
64816;SDS011;69411;45.656;11.740;2023-07-20T02:04:21;13.43;;;9.25;;
64816;SDS011;69411;45.656;11.740;2023-07-20T02:06:47;12.35;;;7.88;;
64816;SDS011;69411;45.656;11.740;2023-07-20T02:09:13;14.90;;;9.48;;
64816;SDS011;69411;45.656;11.740;2023-07-20T02:11:39;15.32;;;9.38;;
64816;SDS011;69411;45.656;11.740;2023-07-20T02:14:05;14.77;;;9.98;;
64816;SDS011;69411;45.656;11.740;2023-07-20T02:16:31;14.40;;;9.27;;
64816;SDS011;69411;45.656;11.740;2023-07-20T02:18:57;14.25;;;8.50;;
64816;SDS011;69411;45.656;11.740;2023-07-20T02:21:23;13.77;;;8.48;;
64816;SDS011;69411;45.656;11.740;2023-07-20T02:23:49;12.45;;;7.65;;
64816;SDS011;69411;45.656;11.740;2023-07-20T02:26:15;12.10;;;7.78;;
64816;SDS011;69411;45.656;11.740;2023-07-20T02:28:41;13.30;;;7.55;;
64816;SDS011;69411;45.656;11.740;2023-07-20T02:31:07;11.45;;;6.80;;
64816;SDS011;69411;45.656;11.740;2023-07-20T02:33:33;12.85;;;8.02;;
64816;SDS011;69411;45.656;11.740;2023-07-20T02:35:59;16.05;;;10.00;;
64816;SDS011;69411;45.656;11.740;2023-07-20T02:38:25;14.13;;;9.35;;
64816;SDS011;69411;45.656;11.740;2023-07-20T02:40:51;15.88;;;10.13;;
64816;SDS011;69411;45.656;11.740;2023-07-20T02:43:17;15.52;;;9.55;;
64816;SDS011;69411;45.656;11.740;2023-07-20T02:45:43;15.63;;;9.82;;
64816;SDS011;69411;45.656;11.740;2023-07-20T02:48:09;14.60;;;10.40;;
64816;SDS011;69411;45.656;11.740;2023-07-20T02:50:35;14.60;;;10.18;;
64816;SDS011;69411;45.656;11.740;2023-07-20T02:53:01;15.73;;;9.68;;
64816;SDS011;69411;45.656;11.740;2023-07-20T02:55:28;14.00;;;9.98;;
64816;SDS011;69411;45.656;11.740;2023-07-20T02:57:53;13.65;;;10.02;;
64816;SDS011;69411;45.656;11.740;2023-07-20T03:00:19;13.70;;;9.50;;
64816;SDS011;69411;45.656;11.740;2023-07-20T03:02:48;13.18;;;9.43;;
64816;SDS011;69411;45.656;11.740;2023-07-20T03:05:18;16.15;;;9.50;;
64816;SDS011;69411;45.656;11.740;2023-07-20T03:07:43;12.80;;;8.50;;
64816;SDS011;69411;45.656;11.740;2023-07-20T03:10:09;17.70;;;8.75;;
64816;SDS011;69411;45.656;11.740;2023-07-20T03:12:36;14.68;;;8.25;;
64816;SDS011;69411;45.656;11.740;2023-07-20T03:15:02;13.23;;;8.93;;
64816;SDS011;69411;45.656;11.740;2023-07-20T03:17:28;18.17;;;9.32;;
64816;SDS011;69411;45.656;11.740;2023-07-20T03:19:54;13.57;;;8.50;;
64816;SDS011;69411;45.656;11.740;2023-07-20T03:22:20;14.55;;;8.38;;
64816;SDS011;69411;45.656;11.740;2023-07-20T03:24:47;13.60;;;8.15;;
64816;SDS011;69411;45.656;11.740;2023-07-20T03:27:13;11.77;;;7.45;;
64816;SDS011;69411;45.656;11.740;2023-07-20T03:29:39;12.77;;;7.22;;
64816;SDS011;69411;45.656;11.740;2023-07-20T03:32:05;12.68;;;6.80;;
64816;SDS011;69411;45.656;11.740;2023-07-20T03:34:31;11.38;;;6.93;;
64816;SDS011;69411;45.656;11.740;2023-07-20T03:36:57;9.32;;;6.43;;
64816;SDS011;69411;45.656;11.740;2023-07-20T03:39:24;9.55;;;6.20;;
64816;SDS011;69411;45.656;11.740;2023-07-20T03:41:59;9.27;;;5.78;;
64816;SDS011;69411;45.656;11.740;2023-07-20T03:44:25;12.85;;;6.50;;
64816;SDS011;69411;45.656;11.740;2023-07-20T03:46:54;12.10;;;6.60;;
64816;SDS011;69411;45.656;11.740;2023-07-20T03:49:24;11.48;;;6.35;;
64816;SDS011;69411;45.656;11.740;2023-07-20T03:51:50;11.55;;;6.00;;
64816;SDS011;69411;45.656;11.740;2023-07-20T03:54:16;9.80;;;5.85;;
64816;SDS011;69411;45.656;11.740;2023-07-20T03:56:42;12.10;;;5.38;;
64816;SDS011;69411;45.656;11.740;2023-07-20T03:59:12;8.05;;;5.15;;
64816;SDS011;69411;45.656;11.740;2023-07-20T04:01:38;7.43;;;4.72;;
64816;SDS011;69411;45.656;11.740;2023-07-20T04:04:18;8.23;;;5.07;;
64816;SDS011;69411;45.656;11.740;2023-07-20T04:06:52;7.15;;;4.63;;
64816;SDS011;69411;45.656;11.740;2023-07-20T04:09:35;6.05;;;4.47;;
64816;SDS011;69411;45.656;11.740;2023-07-20T04:14:27;8.52;;;5.15;;
64816;SDS011;69411;45.656;11.740;2023-07-20T04:16:53;9.48;;;5.13;;
64816;SDS011;69411;45.656;11.740;2023-07-20T04:19:20;7.88;;;5.10;;
64816;SDS011;69411;45.656;11.740;2023-07-20T04:21:47;8.35;;;4.82;;
64816;SDS011;69411;45.656;11.740;2023-07-20T04:24:25;6.57;;;4.43;;
64816;SDS011;69411;45.656;11.740;2023-07-20T04:26:56;7.50;;;4.60;;
64816;SDS011;69411;45.656;11.740;2023-07-20T04:29:23;6.53;;;4.82;;
64816;SDS011;69411;45.656;11.740;2023-07-20T04:31:54;7.78;;;4.85;;
64816;SDS011;69411;45.656;11.740;2023-07-20T04:34:23;9.60;;;4.80;;
64816;SDS011;69411;45.656;11.740;2023-07-20T04:37:04;6.63;;;4.30;;
64816;SDS011;69411;45.656;11.740;2023-07-20T04:39:35;8.23;;;4.45;;
64816;SDS011;69411;45.656;11.740;2023-07-20T04:42:01;11.18;;;5.13;;
64816;SDS011;69411;45.656;11.740;2023-07-20T04:44:27;11.43;;;5.20;;
64816;SDS011;69411;45.656;11.740;2023-07-20T04:46:54;8.07;;;4.53;;
64816;SDS011;69411;45.656;11.740;2023-07-20T04:49:22;10.18;;;4.63;;
64816;SDS011;69411;45.656;11.740;2023-07-20T04:54:16;8.77;;;4.72;;
64816;SDS011;69411;45.656;11.740;2023-07-20T04:56:45;6.70;;;4.38;;
64816;SDS011;69411;45.656;11.740;2023-07-20T04:59:12;11.73;;;5.40;;
64816;SDS011;69411;45.656;11.740;2023-07-20T05:01:46;10.93;;;5.63;;
64816;SDS011;69411;45.656;11.740;2023-07-20T05:04:12;9.20;;;5.55;;
64816;SDS011;69411;45.656;11.740;2023-07-20T05:06:38;9.90;;;6.57;;
64816;SDS011;69411;45.656;11.740;2023-07-20T05:09:05;11.82;;;6.65;;
64816;SDS011;69411;45.656;11.740;2023-07-20T05:11:32;13.43;;;7.30;;
64816;SDS011;69411;45.656;11.740;2023-07-20T05:14:06;12.73;;;7.50;;
64816;SDS011;69411;45.656;11.740;2023-07-20T05:16:36;10.88;;;6.55;;
64816;SDS011;69411;45.656;11.740;2023-07-20T05:19:10;10.55;;;6.80;;
64816;SDS011;69411;45.656;11.740;2023-07-20T05:21:36;10.45;;;6.18;;
64816;SDS011;69411;45.656;11.740;2023-07-20T05:24:21;8.57;;;5.57;;
64816;SDS011;69411;45.656;11.740;2023-07-20T05:26:51;11.07;;;5.90;;
64816;SDS011;69411;45.656;11.740;2023-07-20T05:29:19;11.02;;;6.28;;
64816;SDS011;69411;45.656;11.740;2023-07-20T05:31:45;10.50;;;6.32;;
64816;SDS011;69411;45.656;11.740;2023-07-20T05:34:16;7.70;;;5.45;;
64816;SDS011;69411;45.656;11.740;2023-07-20T05:36:43;8.60;;;4.95;;
64816;SDS011;69411;45.656;11.740;2023-07-20T05:39:11;9.05;;;4.75;;
64816;SDS011;69411;45.656;11.740;2023-07-20T05:41:37;7.97;;;4.68;;
64816;SDS011;69411;45.656;11.740;2023-07-20T05:44:19;8.70;;;4.70;;
64816;SDS011;69411;45.656;11.740;2023-07-20T05:46:45;7.38;;;4.40;;
64816;SDS011;69411;45.656;11.740;2023-07-20T05:49:11;7.00;;;4.35;;
64816;SDS011;69411;45.656;11.740;2023-07-20T05:51:37;9.23;;;4.50;;
64816;SDS011;69411;45.656;11.740;2023-07-20T05:54:04;9.68;;;4.30;;
64816;SDS011;69411;45.656;11.740;2023-07-20T05:56:30;8.07;;;4.18;;
64816;SDS011;69411;45.656;11.740;2023-07-20T05:58:56;7.60;;;4.20;;
64816;SDS011;69411;45.656;11.740;2023-07-20T06:01:26;7.70;;;4.10;;
64816;SDS011;69411;45.656;11.740;2023-07-20T06:03:53;6.45;;;4.05;;
64816;SDS011;69411;45.656;11.740;2023-07-20T06:06:19;8.05;;;4.18;;
64816;SDS011;69411;45.656;11.740;2023-07-20T06:08:45;7.45;;;3.78;;
64816;SDS011;69411;45.656;11.740;2023-07-20T06:11:11;7.53;;;3.92;;
64816;SDS011;69411;45.656;11.740;2023-07-20T06:13:37;7.50;;;4.13;;
64816;SDS011;69411;45.656;11.740;2023-07-20T06:16:03;7.15;;;3.90;;
64816;SDS011;69411;45.656;11.740;2023-07-20T06:18:29;7.68;;;4.30;;
64816;SDS011;69411;45.656;11.740;2023-07-20T06:20:58;7.72;;;4.38;;
64816;SDS011;69411;45.656;11.740;2023-07-20T06:23:28;7.43;;;4.30;;
64816;SDS011;69411;45.656;11.740;2023-07-20T06:25:54;5.75;;;4.00;;
64816;SDS011;69411;45.656;11.740;2023-07-20T06:28:21;6.50;;;4.03;;
64816;SDS011;69411;45.656;11.740;2023-07-20T06:30:46;6.97;;;3.70;;
64816;SDS011;69411;45.656;11.740;2023-07-20T06:33:12;6.28;;;3.90;;
64816;SDS011;69411;45.656;11.740;2023-07-20T06:35:41;5.82;;;3.75;;
64816;SDS011;69411;45.656;11.740;2023-07-20T06:38:08;6.88;;;4.25;;
64816;SDS011;69411;45.656;11.740;2023-07-20T06:40:39;5.47;;;4.00;;
64816;SDS011;69411;45.656;11.740;2023-07-20T06:43:05;6.97;;;4.00;;
64816;SDS011;69411;45.656;11.740;2023-07-20T06:45:33;6.80;;;3.72;;
64816;SDS011;69411;45.656;11.740;2023-07-20T06:47:59;4.55;;;3.70;;
64816;SDS011;69411;45.656;11.740;2023-07-20T06:50:29;7.80;;;4.28;;
64816;SDS011;69411;45.656;11.740;2023-07-20T06:53:00;6.40;;;4.05;;
64816;SDS011;69411;45.656;11.740;2023-07-20T06:55:29;6.60;;;4.28;;
64816;SDS011;69411;45.656;11.740;2023-07-20T06:57:55;8.10;;;4.00;;
64816;SDS011;69411;45.656;11.740;2023-07-20T07:00:21;8.35;;;4.00;;
64816;SDS011;69411;45.656;11.740;2023-07-20T07:02:47;5.78;;;3.80;;
64816;SDS011;69411;45.656;11.740;2023-07-20T07:05:13;8.15;;;4.15;;
64816;SDS011;69411;45.656;11.740;2023-07-20T07:07:41;5.55;;;3.92;;
64816;SDS011;69411;45.656;11.740;2023-07-20T07:10:07;5.88;;;4.22;;
64816;SDS011;69411;45.656;11.740;2023-07-20T07:12:33;7.13;;;4.28;;
64816;SDS011;69411;45.656;11.740;2023-07-20T07:15:02;6.00;;;4.15;;
64816;SDS011;69411;45.656;11.740;2023-07-20T07:17:29;7.40;;;4.07;;
64816;SDS011;69411;45.656;11.740;2023-07-20T07:19:57;7.53;;;4.53;;
64816;SDS011;69411;45.656;11.740;2023-07-20T07:22:26;7.82;;;4.32;;
64816;SDS011;69411;45.656;11.740;2023-07-20T07:24:52;6.53;;;4.10;;
64816;SDS011;69411;45.656;11.740;2023-07-20T07:27:19;7.93;;;4.18;;
64816;SDS011;69411;45.656;11.740;2023-07-20T07:29:45;6.97;;;4.30;;
64816;SDS011;69411;45.656;11.740;2023-07-20T07:32:12;7.70;;;4.22;;
64816;SDS011;69411;45.656;11.740;2023-07-20T07:34:38;8.52;;;4.30;;
64816;SDS011;69411;45.656;11.740;2023-07-20T07:37:04;8.75;;;4.20;;
64816;SDS011;69411;45.656;11.740;2023-07-20T07:39:30;7.78;;;4.13;;
64816;SDS011;69411;45.656;11.740;2023-07-20T07:41:57;7.60;;;4.50;;
64816;SDS011;69411;45.656;11.740;2023-07-20T07:44:23;9.15;;;4.47;;
64816;SDS011;69411;45.656;11.740;2023-07-20T07:46:49;6.97;;;4.35;;
64816;SDS011;69411;45.656;11.740;2023-07-20T07:49:16;8.32;;;4.53;;
64816;SDS011;69411;45.656;11.740;2023-07-20T07:51:43;6.45;;;4.32;;
64816;SDS011;69411;45.656;11.740;2023-07-20T07:54:09;7.57;;;3.97;;
64816;SDS011;69411;45.656;11.740;2023-07-20T07:56:35;8.05;;;4.13;;
64816;SDS011;69411;45.656;11.740;2023-07-20T07:59:01;8.80;;;3.97;;
64816;SDS011;69411;45.656;11.740;2023-07-20T08:01:28;6.30;;;4.10;;
64816;SDS011;69411;45.656;11.740;2023-07-20T08:03:55;7.20;;;4.00;;
64816;SDS011;69411;45.656;11.740;2023-07-20T08:06:21;5.10;;;3.80;;
64816;SDS011;69411;45.656;11.740;2023-07-20T08:08:49;6.05;;;3.58;;
64816;SDS011;69411;45.656;11.740;2023-07-20T08:11:15;5.60;;;4.10;;
64816;SDS011;69411;45.656;11.740;2023-07-20T08:13:43;5.72;;;4.28;;
64816;SDS011;69411;45.656;11.740;2023-07-20T08:16:12;6.22;;;3.92;;
64816;SDS011;69411;45.656;11.740;2023-07-20T08:18:39;7.22;;;4.18;;
64816;SDS011;69411;45.656;11.740;2023-07-20T08:21:06;6.43;;;4.25;;
64816;SDS011;69411;45.656;11.740;2023-07-20T08:23:32;7.93;;;4.45;;
64816;SDS011;69411;45.656;11.740;2023-07-20T08:25:58;5.97;;;4.05;;
64816;SDS011;69411;45.656;11.740;2023-07-20T08:28:29;7.25;;;4.18;;
64816;SDS011;69411;45.656;11.740;2023-07-20T08:30:57;7.22;;;3.85;;
64816;SDS011;69411;45.656;11.740;2023-07-20T08:33:23;7.60;;;4.10;;
64816;SDS011;69411;45.656;11.740;2023-07-20T08:35:50;7.03;;;3.92;;
64816;SDS011;69411;45.656;11.740;2023-07-20T08:38:16;6.55;;;4.07;;
64816;SDS011;69411;45.656;11.740;2023-07-20T08:40:43;6.53;;;4.07;;
64816;SDS011;69411;45.656;11.740;2023-07-20T08:43:12;7.20;;;4.13;;
64816;SDS011;69411;45.656;11.740;2023-07-20T08:45:44;7.05;;;4.30;;
64816;SDS011;69411;45.656;11.740;2023-07-20T08:48:12;7.90;;;4.50;;
64816;SDS011;69411;45.656;11.740;2023-07-20T08:50:39;7.82;;;4.40;;
64816;SDS011;69411;45.656;11.740;2023-07-20T08:53:20;8.82;;;4.13;;
64816;SDS011;69411;45.656;11.740;2023-07-20T08:56:03;6.80;;;4.20;;
64816;SDS011;69411;45.656;11.740;2023-07-20T08:58:32;7.22;;;4.28;;
64816;SDS011;69411;45.656;11.740;2023-07-20T09:01:01;8.27;;;4.47;;
64816;SDS011;69411;45.656;11.740;2023-07-20T09:03:31;7.40;;;4.47;;
64816;SDS011;69411;45.656;11.740;2023-07-20T09:05:58;7.47;;;4.22;;
64816;SDS011;69411;45.656;11.740;2023-07-20T09:08:26;7.95;;;3.60;;
64816;SDS011;69411;45.656;11.740;2023-07-20T09:10:53;8.55;;;4.10;;
64816;SDS011;69411;45.656;11.740;2023-07-20T09:13:20;7.13;;;4.28;;
64816;SDS011;69411;45.656;11.740;2023-07-20T09:15:48;6.53;;;3.75;;
64816;SDS011;69411;45.656;11.740;2023-07-20T09:18:26;5.78;;;3.88;;
64816;SDS011;69411;45.656;11.740;2023-07-20T09:21:15;8.70;;;4.40;;
64816;SDS011;69411;45.656;11.740;2023-07-20T09:23:42;8.32;;;4.07;;
64816;SDS011;69411;45.656;11.740;2023-07-20T09:26:13;6.15;;;3.55;;
64816;SDS011;69411;45.656;11.740;2023-07-20T09:31:15;6.93;;;3.90;;
64816;SDS011;69411;45.656;11.740;2023-07-20T09:33:42;5.63;;;3.55;;
64816;SDS011;69411;45.656;11.740;2023-07-20T09:36:09;6.03;;;4.20;;
64816;SDS011;69411;45.656;11.740;2023-07-20T09:38:41;5.70;;;3.60;;
64816;SDS011;69411;45.656;11.740;2023-07-20T09:41:14;5.65;;;3.30;;
64816;SDS011;69411;45.656;11.740;2023-07-20T09:43:41;4.32;;;3.45;;
64816;SDS011;69411;45.656;11.740;2023-07-20T09:46:07;5.55;;;3.53;;
64816;SDS011;69411;45.656;11.740;2023-07-20T09:48:34;6.68;;;3.90;;
64816;SDS011;69411;45.656;11.740;2023-07-20T09:51:00;5.55;;;3.50;;
64816;SDS011;69411;45.656;11.740;2023-07-20T09:53:35;6.47;;;3.67;;
64816;SDS011;69411;45.656;11.740;2023-07-20T09:56:03;3.67;;;3.08;;
64816;SDS011;69411;45.656;11.740;2023-07-20T09:58:30;6.03;;;3.60;;
64816;SDS011;69411;45.656;11.740;2023-07-20T10:01:00;6.00;;;3.42;;
64816;SDS011;69411;45.656;11.740;2023-07-20T10:03:32;4.97;;;3.33;;
64816;SDS011;69411;45.656;11.740;2023-07-20T10:06:05;6.15;;;3.45;;
64816;SDS011;69411;45.656;11.740;2023-07-20T10:08:37;4.68;;;3.20;;
64816;SDS011;69411;45.656;11.740;2023-07-20T10:11:05;6.15;;;3.42;;
64816;SDS011;69411;45.656;11.740;2023-07-20T10:13:37;7.03;;;3.20;;
64816;SDS011;69411;45.656;11.740;2023-07-20T10:16:09;6.45;;;3.40;;
64816;SDS011;69411;45.656;11.740;2023-07-20T10:18:59;6.22;;;3.22;;
64816;SDS011;69411;45.656;11.740;2023-07-20T10:21:57;5.00;;;3.33;;
64816;SDS011;69411;45.656;11.740;2023-07-20T10:24:28;6.70;;;3.38;;
64816;SDS011;69411;45.656;11.740;2023-07-20T10:26:57;4.93;;;3.33;;
64816;SDS011;69411;45.656;11.740;2023-07-20T10:29:23;3.80;;;3.03;;
64816;SDS011;69411;45.656;11.740;2023-07-20T10:31:50;4.60;;;2.92;;
64816;SDS011;69411;45.656;11.740;2023-07-20T10:34:16;6.35;;;3.30;;
64816;SDS011;69411;45.656;11.740;2023-07-20T10:36:43;4.80;;;3.15;;
64816;SDS011;69411;45.656;11.740;2023-07-20T10:42:12;5.70;;;3.08;;
64816;SDS011;69411;45.656;11.740;2023-07-20T10:44:40;4.45;;;3.10;;
64816;SDS011;69411;45.656;11.740;2023-07-20T10:47:10;4.43;;;3.03;;
64816;SDS011;69411;45.656;11.740;2023-07-20T10:52:25;3.83;;;2.85;;
64816;SDS011;69411;45.656;11.740;2023-07-20T10:54:51;4.45;;;2.90;;
64816;SDS011;69411;45.656;11.740;2023-07-20T10:57:24;4.13;;;2.80;;
64816;SDS011;69411;45.656;11.740;2023-07-20T11:00:06;4.50;;;2.80;;
64816;SDS011;69411;45.656;11.740;2023-07-20T11:02:47;4.18;;;2.88;;
64816;SDS011;69411;45.656;11.740;2023-07-20T11:05:34;6.22;;;3.30;;
64816;SDS011;69411;45.656;11.740;2023-07-20T11:08:11;5.63;;;3.40;;
64816;SDS011;69411;45.656;11.740;2023-07-20T11:10:38;6.25;;;3.30;;
64816;SDS011;69411;45.656;11.740;2023-07-20T11:13:20;6.53;;;3.13;;
64816;SDS011;69411;45.656;11.740;2023-07-20T11:18:25;5.00;;;3.00;;
64816;SDS011;69411;45.656;11.740;2023-07-20T11:20:51;4.95;;;2.90;;
64816;SDS011;69411;45.656;11.740;2023-07-20T11:23:21;5.22;;;2.55;;
64816;SDS011;69411;45.656;11.740;2023-07-20T11:25:48;4.82;;;2.75;;
64816;SDS011;69411;45.656;11.740;2023-07-20T11:28:15;5.95;;;2.60;;
64816;SDS011;69411;45.656;11.740;2023-07-20T11:30:41;5.22;;;2.78;;
64816;SDS011;69411;45.656;11.740;2023-07-20T11:33:10;4.55;;;2.90;;
64816;SDS011;69411;45.656;11.740;2023-07-20T11:35:42;4.05;;;2.88;;
64816;SDS011;69411;45.656;11.740;2023-07-20T11:38:12;4.25;;;2.70;;
64816;SDS011;69411;45.656;11.740;2023-07-20T11:40:43;5.78;;;3.30;;
64816;SDS011;69411;45.656;11.740;2023-07-20T11:43:10;5.65;;;3.05;;
64816;SDS011;69411;45.656;11.740;2023-07-20T11:45:40;5.43;;;3.38;;
64816;SDS011;69411;45.656;11.740;2023-07-20T11:48:06;4.78;;;3.03;;
64816;SDS011;69411;45.656;11.740;2023-07-20T11:50:32;3.50;;;2.92;;
64816;SDS011;69411;45.656;11.740;2023-07-20T11:55:40;4.32;;;3.10;;
64816;SDS011;69411;45.656;11.740;2023-07-20T11:58:07;6.68;;;3.20;;
64816;SDS011;69411;45.656;11.740;2023-07-20T12:00:35;6.85;;;3.13;;
64816;SDS011;69411;45.656;11.740;2023-07-20T12:03:05;5.05;;;3.00;;
64816;SDS011;69411;45.656;11.740;2023-07-20T12:05:32;5.50;;;3.05;;
64816;SDS011;69411;45.656;11.740;2023-07-20T12:07:59;5.93;;;2.92;;
64816;SDS011;69411;45.656;11.740;2023-07-20T12:10:25;5.13;;;2.80;;
64816;SDS011;69411;45.656;11.740;2023-07-20T12:12:53;7.13;;;3.25;;
64816;SDS011;69411;45.656;11.740;2023-07-20T12:15:23;5.88;;;3.10;;
64816;SDS011;69411;45.656;11.740;2023-07-20T12:17:52;6.95;;;2.85;;
64816;SDS011;69411;45.656;11.740;2023-07-20T12:20:26;6.13;;;2.70;;
64816;SDS011;69411;45.656;11.740;2023-07-20T12:23:02;4.53;;;3.00;;
64816;SDS011;69411;45.656;11.740;2023-07-20T12:25:33;5.32;;;2.90;;
64816;SDS011;69411;45.656;11.740;2023-07-20T12:28:21;3.88;;;2.63;;
64816;SDS011;69411;45.656;11.740;2023-07-20T12:30:47;4.63;;;2.95;;
64816;SDS011;69411;45.656;11.740;2023-07-20T12:33:21;6.95;;;3.13;;
64816;SDS011;69411;45.656;11.740;2023-07-20T12:35:48;4.07;;;2.85;;
64816;SDS011;69411;45.656;11.740;2023-07-20T12:38:15;5.80;;;2.88;;
64816;SDS011;69411;45.656;11.740;2023-07-20T12:40:42;5.28;;;3.40;;
64816;SDS011;69411;45.656;11.740;2023-07-20T12:43:08;5.00;;;2.60;;
64816;SDS011;69411;45.656;11.740;2023-07-20T12:45:34;4.80;;;2.90;;
64816;SDS011;69411;45.656;11.740;2023-07-20T12:48:03;5.28;;;3.10;;
64816;SDS011;69411;45.656;11.740;2023-07-20T12:50:32;4.97;;;3.08;;
64816;SDS011;69411;45.656;11.740;2023-07-20T12:53:01;3.78;;;2.95;;
64816;SDS011;69411;45.656;11.740;2023-07-20T12:55:34;6.30;;;3.28;;
64816;SDS011;69411;45.656;11.740;2023-07-20T12:58:00;5.43;;;3.00;;
64816;SDS011;69411;45.656;11.740;2023-07-20T13:00:26;8.07;;;3.60;;
64816;SDS011;69411;45.656;11.740;2023-07-20T13:02:52;5.20;;;3.10;;
64816;SDS011;69411;45.656;11.740;2023-07-20T13:05:18;6.28;;;3.00;;
64816;SDS011;69411;45.656;11.740;2023-07-20T13:07:44;6.50;;;3.65;;
64816;SDS011;69411;45.656;11.740;2023-07-20T13:10:11;5.22;;;3.10;;
64816;SDS011;69411;45.656;11.740;2023-07-20T13:12:37;5.85;;;3.03;;
64816;SDS011;69411;45.656;11.740;2023-07-20T13:15:04;6.65;;;3.00;;
64816;SDS011;69411;45.656;11.740;2023-07-20T13:17:35;4.80;;;3.00;;
64816;SDS011;69411;45.656;11.740;2023-07-20T13:20:02;6.15;;;3.33;;
64816;SDS011;69411;45.656;11.740;2023-07-20T13:22:30;6.53;;;3.20;;
64816;SDS011;69411;45.656;11.740;2023-07-20T13:24:56;5.07;;;2.90;;
64816;SDS011;69411;45.656;11.740;2023-07-20T13:27:22;4.22;;;2.83;;
64816;SDS011;69411;45.656;11.740;2023-07-20T13:29:48;6.32;;;2.90;;
64816;SDS011;69411;45.656;11.740;2023-07-20T13:32:14;5.68;;;3.00;;
64816;SDS011;69411;45.656;11.740;2023-07-20T13:34:41;4.68;;;2.53;;
64816;SDS011;69411;45.656;11.740;2023-07-20T13:37:07;4.03;;;3.00;;
64816;SDS011;69411;45.656;11.740;2023-07-20T13:39:34;4.47;;;3.15;;
64816;SDS011;69411;45.656;11.740;2023-07-20T13:42:01;9.00;;;3.42;;
64816;SDS011;69411;45.656;11.740;2023-07-20T13:44:29;5.75;;;3.20;;
64816;SDS011;69411;45.656;11.740;2023-07-20T13:46:55;5.75;;;2.85;;
64816;SDS011;69411;45.656;11.740;2023-07-20T13:49:22;6.40;;;3.08;;
64816;SDS011;69411;45.656;11.740;2023-07-20T13:51:55;5.60;;;3.38;;
64816;SDS011;69411;45.656;11.740;2023-07-20T13:54:23;7.35;;;2.90;;
64816;SDS011;69411;45.656;11.740;2023-07-20T13:56:49;6.20;;;3.33;;
64816;SDS011;69411;45.656;11.740;2023-07-20T13:59:18;7.93;;;3.45;;
64816;SDS011;69411;45.656;11.740;2023-07-20T14:01:44;6.68;;;3.13;;
64816;SDS011;69411;45.656;11.740;2023-07-20T14:04:12;6.63;;;3.47;;
64816;SDS011;69411;45.656;11.740;2023-07-20T14:06:38;5.40;;;3.10;;
64816;SDS011;69411;45.656;11.740;2023-07-20T14:09:03;6.10;;;3.15;;
64816;SDS011;69411;45.656;11.740;2023-07-20T14:11:30;7.35;;;3.20;;
64816;SDS011;69411;45.656;11.740;2023-07-20T14:13:56;4.68;;;3.15;;
64816;SDS011;69411;45.656;11.740;2023-07-20T14:16:23;5.05;;;2.97;;
64816;SDS011;69411;45.656;11.740;2023-07-20T14:18:50;4.30;;;3.35;;
64816;SDS011;69411;45.656;11.740;2023-07-20T14:21:18;6.10;;;3.13;;
64816;SDS011;69411;45.656;11.740;2023-07-20T14:23:48;5.00;;;3.30;;
64816;SDS011;69411;45.656;11.740;2023-07-20T14:26:14;5.25;;;3.30;;
64816;SDS011;69411;45.656;11.740;2023-07-20T14:28:49;5.20;;;3.17;;
64816;SDS011;69411;45.656;11.740;2023-07-20T14:31:16;4.43;;;3.05;;
64816;SDS011;69411;45.656;11.740;2023-07-20T14:33:42;6.53;;;3.00;;
64816;SDS011;69411;45.656;11.740;2023-07-20T14:36:08;7.25;;;3.47;;
64816;SDS011;69411;45.656;11.740;2023-07-20T14:38:34;5.85;;;3.38;;
64816;SDS011;69411;45.656;11.740;2023-07-20T14:41:01;6.07;;;3.00;;
64816;SDS011;69411;45.656;11.740;2023-07-20T14:43:28;5.35;;;3.00;;
64816;SDS011;69411;45.656;11.740;2023-07-20T14:45:54;6.57;;;3.05;;
64816;SDS011;69411;45.656;11.740;2023-07-20T14:48:20;4.53;;;3.15;;
64816;SDS011;69411;45.656;11.740;2023-07-20T14:50:47;5.88;;;3.30;;
64816;SDS011;69411;45.656;11.740;2023-07-20T14:53:13;4.75;;;2.97;;
64816;SDS011;69411;45.656;11.740;2023-07-20T14:55:39;5.72;;;3.20;;
64816;SDS011;69411;45.656;11.740;2023-07-20T14:58:05;5.25;;;3.17;;
64816;SDS011;69411;45.656;11.740;2023-07-20T15:00:31;8.40;;;3.58;;
64816;SDS011;69411;45.656;11.740;2023-07-20T15:02:57;5.30;;;3.00;;
64816;SDS011;69411;45.656;11.740;2023-07-20T15:05:24;5.60;;;3.03;;
64816;SDS011;69411;45.656;11.740;2023-07-20T15:07:52;5.78;;;3.05;;